Time;durP1;ratioP1;P1;durP2;ratioP2;P2;SDS_P1;SDS_P2;PMS_P1;PMS_P2;Temp;Humidity;BMP_temperature;BMP_pressure;BME280_temperature;BME280_humidity;BME280_pressure;Samples;Min_cycle;Max_cycle;Signal;HPM_P1;HPM_P2
2021/05/04 00:01:55;;;;;;;7.30;6.57;;;;;;;11.24;46.85;100337.91;5044790;28;20017;-67
2021/05/04 00:04:20;;;;;;;7.20;6.60;;;;;;;11.33;46.21;100330.75;5069524;28;20029;-68
2021/05/04 00:06:45;;;;;;;7.35;6.68;;;;;;;11.42;45.74;100334.09;5054850;28;20117;-68
2021/05/04 00:09:10;;;;;;;7.72;6.93;;;;;;;11.57;46.00;100332.03;5044815;28;20031;-68
2021/05/04 00:11:36;;;;;;;9.23;8.20;;;;;;;11.60;46.25;100328.50;5074477;28;20036;-68
2021/05/04 00:14:01;;;;;;;8.13;7.22;;;;;;;11.51;46.00;100318.97;5063862;28;20046;-68
2021/05/04 00:16:27;;;;;;;7.72;6.88;;;;;;;11.34;46.65;100309.56;5061999;28;20087;-69
2021/05/04 00:18:52;;;;;;;8.13;7.43;;;;;;;11.40;46.50;100298.91;5066304;28;20052;-68
2021/05/04 00:21:17;;;;;;;6.90;6.30;;;;;;;11.24;46.47;100302.72;5071594;28;20036;-69
2021/05/04 00:23:42;;;;;;;8.43;7.60;;;;;;;11.57;46.12;100302.97;5055707;28;20047;-68
2021/05/04 00:26:09;;;;;;;8.02;6.65;;;;;;;11.55;46.22;100296.88;5060868;28;20467;-68
2021/05/04 00:28:35;;;;;;;9.90;6.82;;;;;;;11.45;46.61;100293.53;5074463;28;20056;-67
2021/05/04 00:31:00;;;;;;;10.35;6.93;;;;;;;11.57;46.19;100292.41;5056733;28;20210;-68
2021/05/04 00:33:25;;;;;;;9.77;7.85;;;;;;;11.37;46.79;100283.09;5066582;28;20541;-69
2021/05/04 00:35:51;;;;;;;7.95;7.18;;;;;;;11.42;46.53;100278.63;5064027;28;20074;-68
2021/05/04 00:38:16;;;;;;;8.18;7.40;;;;;;;12.00;45.31;100273.97;5056954;28;20525;-68
2021/05/04 00:40:42;;;;;;;8.18;7.38;;;;;;;11.82;45.73;100265.53;5074463;28;20036;-69
2021/05/04 00:43:07;;;;;;;8.77;7.68;;;;;;;11.64;45.35;100264.13;5074376;28;20112;-69
2021/05/04 00:45:32;;;;;;;10.98;8.32;;;;;;;11.40;46.37;100254.00;5044248;28;20032;-68
2021/05/04 00:47:58;;;;;;;10.63;9.63;;;;;;;11.66;45.44;100260.56;5074554;28;20027;-68
2021/05/04 00:50:23;;;;;;;15.95;11.80;;;;;;;11.28;47.06;100243.69;5066638;28;20028;-68
2021/05/04 00:52:48;;;;;;;9.57;8.48;;;;;;;11.29;47.06;100233.13;5053247;28;20059;-68
2021/05/04 00:55:14;;;;;;;8.98;8.18;;;;;;;11.28;47.32;100235.78;5057737;28;20031;-68
2021/05/04 00:57:40;;;;;;;8.45;7.65;;;;;;;11.23;47.18;100229.69;5073986;28;20086;-68
2021/05/04 01:00:07;;;;;;;8.50;7.07;;;;;;;11.29;47.51;100221.66;5051833;28;20128;-68
2021/05/04 01:02:32;;;;;;;7.53;6.85;;;;;;;11.26;46.51;100216.44;5054282;28;20081;-68
2021/05/04 01:04:59;;;;;;;8.13;7.40;;;;;;;11.18;47.55;100206.03;5037437;28;20431;-68
2021/05/04 01:07:26;;;;;;;7.32;6.63;;;;;;;11.31;46.35;100193.47;5055837;28;20032;-68
2021/05/04 01:09:51;;;;;;;8.52;7.72;;;;;;;11.28;47.07;100193.53;5054517;28;20070;-67
2021/05/04 01:12:16;;;;;;;7.28;6.57;;;;;;;11.31;46.77;100188.19;5056175;28;20028;-69
2021/05/04 01:14:41;;;;;;;7.32;6.57;;;;;;;11.32;46.83;100182.00;5073416;28;20526;-68
2021/05/04 01:17:07;;;;;;;7.50;6.65;;;;;;;11.21;47.70;100184.00;5054294;28;20039;-68
2021/05/04 01:19:32;;;;;;;9.40;7.22;;;;;;;11.07;47.35;100174.56;5053053;28;20076;-68
2021/05/04 01:21:57;;;;;;;7.88;7.15;;;;;;;10.97;47.91;100165.09;5068249;28;20020;-68
2021/05/04 01:24:23;;;;;;;8.10;6.93;;;;;;;11.12;47.43;100159.53;5067682;28;20553;-68
2021/05/04 01:26:48;;;;;;;8.38;7.18;;;;;;;11.44;46.91;100153.63;5049705;28;20017;-68
2021/05/04 01:29:14;;;;;;;7.13;6.38;;;;;;;11.70;45.70;100144.28;5067529;28;20055;-68
2021/05/04 01:31:40;;;;;;;7.55;6.88;;;;;;;11.64;46.00;100147.91;5055949;28;20478;-69
2021/05/04 01:34:06;;;;;;;7.65;6.88;;;;;;;11.84;45.57;100136.88;5055931;28;20029;-68
2021/05/04 01:36:32;;;;;;;7.90;7.20;;;;;;;11.96;44.93;100132.22;5067302;28;20024;-69
2021/05/04 01:38:58;;;;;;;7.00;6.28;;;;;;;12.09;43.93;100125.78;5055646;28;20103;-68
2021/05/04 01:41:23;;;;;;;7.57;6.88;;;;;;;11.96;45.42;100125.16;5072806;28;20108;-68
2021/05/04 01:43:49;;;;;;;7.78;6.82;;;;;;;12.07;44.62;100122.28;5055638;28;20024;-68
2021/05/04 01:46:14;;;;;;;9.07;7.15;;;;;;;11.78;45.61;100111.47;5066872;28;20024;-68
2021/05/04 01:48:39;;;;;;;7.22;6.57;;;;;;;12.05;43.44;100102.94;5059885;28;20063;-69
2021/05/04 01:51:05;;;;;;;8.25;6.97;;;;;;;12.09;43.40;100104.63;5035422;28;20025;-69
2021/05/04 01:53:30;;;;;;;8.68;6.88;;;;;;;11.78;43.85;100105.31;5070961;28;20111;-69
2021/05/04 01:55:55;;;;;;;7.65;6.90;;;;;;;11.13;44.28;100103.19;5064482;28;20103;-68
2021/05/04 01:58:21;;;;;;;8.38;6.50;;;;;;;11.31;45.07;100094.91;5035413;28;20017;-68
2021/05/04 02:00:46;;;;;;;8.13;7.00;;;;;;;11.47;44.06;100084.91;5036375;28;20079;-68
2021/05/04 02:03:11;;;;;;;8.10;7.13;;;;;;;11.84;43.84;100077.91;5071241;28;20533;-68
2021/05/04 02:05:37;;;;;;;7.38;6.68;;;;;;;12.00;43.49;100073.97;5068311;28;20028;-68
2021/05/04 02:08:02;;;;;;;8.73;7.80;;;;;;;11.31;43.79;100060.59;5039965;28;20043;-69
2021/05/04 02:10:28;;;;;;;9.50;7.10;;;;;;;11.78;43.44;100061.25;5068907;28;20028;-68
2021/05/04 02:12:53;;;;;;;8.38;7.45;;;;;;;11.94;43.73;100063.56;5073013;28;20026;-68
2021/05/04 02:15:18;;;;;;;8.25;7.45;;;;;;;11.83;43.29;100045.31;5038245;28;20029;-69
2021/05/04 02:17:44;;;;;;;8.35;7.45;;;;;;;11.87;43.01;100041.69;5068171;28;20146;-69
2021/05/04 02:20:10;;;;;;;9.10;7.63;;;;;;;11.98;43.19;100030.88;5035003;28;20025;-68
2021/05/04 02:22:36;;;;;;;7.63;6.82;;;;;;;11.63;43.88;100028.16;5052709;28;20054;-68
2021/05/04 02:25:02;;;;;;;8.82;7.93;;;;;;;11.73;43.83;100020.88;5053138;28;20464;-68
2021/05/04 02:27:28;;;;;;;9.55;8.00;;;;;;;11.58;44.42;100001.00;5034782;28;20408;-68
2021/05/04 02:29:53;;;;;;;9.50;8.15;;;;;;;11.89;43.15;99994.97;5059099;28;20016;-68
2021/05/04 02:32:18;;;;;;;8.43;7.25;;;;;;;11.58;43.97;99992.22;5044743;28;20036;-68
2021/05/04 02:34:43;;;;;;;9.00;7.75;;;;;;;11.51;43.71;99978.28;5052533;28;20055;-69
2021/05/04 02:37:09;;;;;;;8.73;6.97;;;;;;;11.00;45.26;99965.34;5036535;28;20025;-68
2021/05/04 02:39:34;;;;;;;7.97;7.07;;;;;;;10.55;46.48;99963.69;5072329;28;20032;-68
2021/05/04 02:41:59;;;;;;;8.93;8.02;;;;;;;10.74;45.91;99964.16;5048275;28;20049;-69
2021/05/04 02:44:25;;;;;;;8.48;6.80;;;;;;;11.10;44.87;99960.75;5058932;28;20399;-68
2021/05/04 02:46:50;;;;;;;8.68;7.78;;;;;;;11.01;45.69;99945.13;5071645;28;20028;-68
2021/05/04 02:49:16;;;;;;;11.40;7.53;;;;;;;10.91;45.59;99940.03;5054389;28;20028;-69
2021/05/04 02:51:43;;;;;;;7.57;6.82;;;;;;;10.96;45.84;99931.16;5053786;28;20452;-69
2021/05/04 02:54:08;;;;;;;9.18;7.68;;;;;;;10.59;46.41;99931.06;5071474;28;20033;-68
2021/05/04 02:56:34;;;;;;;8.45;7.55;;;;;;;10.47;46.20;99912.88;5072065;28;20432;-68
2021/05/04 02:58:59;;;;;;;8.48;7.57;;;;;;;10.64;45.88;99926.56;5072000;28;20075;-68
2021/05/04 03:01:24;;;;;;;9.27;7.75;;;;;;;10.35;46.74;99904.28;5070813;28;20444;-69
2021/05/04 03:03:50;;;;;;;7.45;6.78;;;;;;;10.18;46.74;99901.13;5054191;28;20031;-68
2021/05/04 03:06:15;;;;;;;9.02;7.45;;;;;;;10.71;45.41;99897.44;5071530;28;20031;-68
2021/05/04 03:08:40;;;;;;;8.52;7.68;;;;;;;10.67;45.49;99893.13;5062010;28;20082;-68
2021/05/04 03:11:05;;;;;;;9.05;8.02;;;;;;;10.72;44.93;99883.31;5070006;28;20025;-68
2021/05/04 03:13:32;;;;;;;9.10;8.15;;;;;;;10.74;46.06;99863.91;5052546;28;20024;-68
2021/05/04 03:15:58;;;;;;;9.45;8.00;;;;;;;11.08;44.48;99867.56;5038567;28;20075;-69
2021/05/04 03:18:24;;;;;;;9.88;7.05;;;;;;;10.91;45.15;99866.16;5052347;28;20028;-68
2021/05/04 03:20:49;;;;;;;9.25;8.35;;;;;;;11.24;44.07;99857.47;5070727;28;20430;-68
2021/05/04 03:23:15;;;;;;;8.90;7.22;;;;;;;10.99;44.88;99851.94;5058791;28;20032;-68
2021/05/04 03:25:42;;;;;;;11.18;7.68;;;;;;;11.06;44.34;99847.38;5034792;28;20409;-68
2021/05/04 03:28:10;;;;;;;9.18;8.23;;;;;;;10.86;44.67;99844.31;5034099;28;20025;-69
2021/05/04 03:30:35;;;;;;;11.40;7.88;;;;;;;10.88;44.63;99829.31;5046922;28;20383;-69
2021/05/04 03:33:01;;;;;;;8.45;6.88;;;;;;;11.10;43.45;99827.94;5051893;28;20111;-68
2021/05/04 03:35:27;;;;;;;7.68;6.88;;;;;;;10.72;44.47;99815.63;5055060;28;20028;-68
2021/05/04 03:37:52;;;;;;;6.95;6.30;;;;;;;10.14;46.40;99816.00;5053495;28;20020;-68
2021/05/04 03:40:17;;;;;;;8.60;7.18;;;;;;;11.06;44.70;99800.75;5069729;28;20035;-68
2021/05/04 03:42:43;;;;;;;8.05;6.78;;;;;;;11.27;44.07;99787.91;5059370;28;20037;-68
2021/05/04 03:45:11;;;;;;;8.43;7.10;;;;;;;11.27;44.27;99787.91;5045405;28;20052;-68
2021/05/04 03:47:41;;;;;;;8.82;7.25;;;;;;;11.25;43.61;99779.16;5072442;28;20024;-68
2021/05/04 03:50:08;;;;;;;8.30;6.88;;;;;;;11.36;44.19;99782.38;5061914;28;20021;-68
2021/05/04 03:52:33;;;;;;;8.27;7.40;;;;;;;10.95;44.47;99765.84;5057758;28;20032;-68
2021/05/04 03:54:59;;;;;;;8.15;7.13;;;;;;;11.26;44.14;99757.13;5061411;28;20024;-68
2021/05/04 03:57:24;;;;;;;7.38;6.68;;;;;;;11.60;43.38;99750.06;5062931;28;20036;-68
2021/05/04 03:59:50;;;;;;;8.40;7.18;;;;;;;11.47;43.64;99734.56;5040760;28;20020;-68
2021/05/04 04:02:15;;;;;;;6.72;6.13;;;;;;;11.29;44.20;99733.28;5062039;28;20193;-68
2021/05/04 04:04:40;;;;;;;8.13;6.45;;;;;;;11.34;43.59;99723.47;5075386;28;20029;-67
2021/05/04 04:07:06;;;;;;;8.65;7.65;;;;;;;10.79;45.01;99724.03;5073772;28;20077;-68
2021/05/04 04:09:31;;;;;;;12.88;8.20;;;;;;;10.71;45.55;99718.94;5074199;28;20024;-67
2021/05/04 04:11:56;;;;;;;7.97;7.18;;;;;;;10.87;44.99;99703.59;5075230;28;20016;-68
2021/05/04 04:14:22;;;;;;;7.60;6.88;;;;;;;10.98;44.99;99707.72;5057405;28;20033;-68
2021/05/04 04:16:47;;;;;;;7.97;7.25;;;;;;;11.15;44.29;99696.72;5074682;28;20044;-68
2021/05/04 04:19:13;;;;;;;7.57;6.72;;;;;;;10.78;45.28;99691.50;5073911;28;20028;-68
2021/05/04 04:21:38;;;;;;;7.97;7.10;;;;;;;11.15;44.79;99683.53;5073712;28;20116;-68
2021/05/04 04:24:04;;;;;;;7.93;6.90;;;;;;;10.82;45.36;99681.75;5073900;28;20028;-68
2021/05/04 04:26:29;;;;;;;9.95;7.70;;;;;;;11.04;45.42;99666.22;5074935;28;20482;-68
2021/05/04 04:28:54;;;;;;;8.40;7.35;;;;;;;11.15;44.65;99668.56;5074580;28;20471;-68
2021/05/04 04:31:20;;;;;;;8.60;7.57;;;;;;;11.33;44.50;99655.75;5070215;28;20051;-68
2021/05/04 04:33:45;;;;;;;8.35;7.35;;;;;;;10.51;46.67;99648.25;5074234;28;20024;-68
2021/05/04 04:36:10;;;;;;;8.57;7.28;;;;;;;10.71;45.50;99637.19;5060565;28;20027;-68
2021/05/04 04:38:36;;;;;;;7.82;6.43;;;;;;;11.06;45.26;99626.59;5064807;28;20024;-68
2021/05/04 04:41:01;;;;;;;7.38;6.68;;;;;;;11.22;44.99;99634.94;5074685;28;20468;-68
2021/05/04 04:43:26;;;;;;;10.15;7.90;;;;;;;11.43;44.44;99616.75;5063543;28;20032;-69
2021/05/04 04:45:52;;;;;;;9.27;7.55;;;;;;;11.20;44.57;99625.34;5059011;28;20430;-68
2021/05/04 04:48:17;;;;;;;10.02;7.55;;;;;;;10.92;45.55;99600.59;5059095;28;20103;-68
2021/05/04 04:50:42;;;;;;;8.60;7.40;;;;;;;11.10;45.19;99601.00;5073661;28;20059;-68
2021/05/04 04:53:08;;;;;;;8.35;7.38;;;;;;;11.16;45.24;99603.44;5073805;28;20031;-68
2021/05/04 04:55:33;;;;;;;9.40;6.60;;;;;;;10.93;46.09;99602.31;5073721;28;20020;-68
2021/05/04 04:57:59;;;;;;;9.10;7.18;;;;;;;11.00;45.53;99584.53;5071096;28;20056;-68
2021/05/04 05:00:24;;;;;;;7.68;6.90;;;;;;;11.33;44.88;99567.78;5056530;28;20037;-68
2021/05/04 05:02:50;;;;;;;7.97;6.93;;;;;;;10.83;45.53;99556.88;5056838;28;20040;-68
2021/05/04 05:05:15;;;;;;;8.50;7.57;;;;;;;11.27;44.97;99564.41;5073978;28;20391;-68
2021/05/04 05:07:40;;;;;;;8.00;7.20;;;;;;;11.22;45.34;99573.38;5073332;28;20028;-68
2021/05/04 05:10:06;;;;;;;7.60;6.93;;;;;;;10.91;45.86;99565.44;5074294;28;20043;-68
2021/05/04 05:12:32;;;;;;;7.35;6.63;;;;;;;11.00;45.92;99559.03;5072589;28;20123;-68
2021/05/04 05:15:00;;;;;;;8.90;6.43;;;;;;;11.03;45.65;99537.84;5073381;28;20107;-69
2021/05/04 05:17:25;;;;;;;8.68;7.20;;;;;;;10.95;45.55;99536.31;5056793;28;20391;-69
2021/05/04 05:19:51;;;;;;;8.20;6.78;;;;;;;10.83;46.34;99538.41;5056330;28;20020;-69
2021/05/04 05:22:16;;;;;;;18.15;8.05;;;;;;;10.25;47.47;99525.88;5073723;28;20025;-67
2021/05/04 05:24:41;;;;;;;9.05;7.10;;;;;;;10.74;46.70;99522.84;5063716;28;20082;-67
2021/05/04 05:27:07;;;;;;;9.85;7.28;;;;;;;11.03;45.81;99529.91;5074008;28;20024;-68
2021/05/04 05:29:34;;;;;;;8.75;7.85;;;;;;;10.87;46.34;99531.28;5072690;28;20025;-68
2021/05/04 05:32:00;;;;;;;9.23;8.32;;;;;;;10.97;46.10;99521.34;5072645;28;20074;-67
2021/05/04 05:34:25;;;;;;;9.23;8.15;;;;;;;10.73;46.23;99510.56;5073819;28;20234;-67
2021/05/04 05:36:50;;;;;;;9.68;8.68;;;;;;;10.90;46.34;99523.25;5073758;28;20399;-67
2021/05/04 05:39:16;;;;;;;9.43;8.18;;;;;;;10.93;45.93;99514.41;5073375;28;20032;-67
2021/05/04 05:41:41;;;;;;;9.90;7.32;;;;;;;10.73;47.20;99513.19;5073576;28;20074;-67
2021/05/04 05:44:07;;;;;;;8.27;7.47;;;;;;;10.56;47.69;99511.91;5073549;28;20531;-67
2021/05/04 05:46:32;;;;;;;7.75;7.00;;;;;;;10.69;47.11;99501.00;5073147;28;20539;-67
2021/05/04 05:48:58;;;;;;;7.88;7.18;;;;;;;10.87;47.06;99516.31;5055467;28;20032;-67
2021/05/04 05:51:24;;;;;;;8.35;7.47;;;;;;;11.09;46.41;99513.03;5073125;28;20257;-67
2021/05/04 05:53:49;;;;;;;8.60;7.25;;;;;;;11.67;45.65;99508.63;5072211;28;20037;-67
2021/05/04 05:56:14;;;;;;;9.73;8.50;;;;;;;11.70;45.36;99505.03;5071855;28;20090;-67
2021/05/04 05:58:40;;;;;;;8.25;7.40;;;;;;;11.88;45.02;99493.00;5072230;28;20032;-67
2021/05/04 06:01:05;;;;;;;8.90;8.00;;;;;;;11.99;44.65;99495.25;5070662;28;20024;-67
2021/05/04 06:03:30;;;;;;;8.50;7.30;;;;;;;12.20;44.40;99493.69;5073003;28;20023;-68
2021/05/04 06:05:56;;;;;;;10.57;6.68;;;;;;;12.26;43.94;99496.13;5072080;28;20020;-67
2021/05/04 06:08:22;;;;;;;7.15;6.45;;;;;;;12.23;43.92;99496.22;5055138;28;20028;-68
2021/05/04 06:10:48;;;;;;;8.18;6.65;;;;;;;11.92;44.92;99490.22;5038545;28;20069;-68
2021/05/04 06:13:13;;;;;;;7.60;6.88;;;;;;;12.39;44.11;99500.97;5055040;28;20028;-67
2021/05/04 06:15:42;;;;;;;7.78;6.93;;;;;;;12.01;44.36;99483.72;5072788;28;20031;-67
2021/05/04 06:18:08;;;;;;;9.23;6.72;;;;;;;12.02;44.27;99481.94;5055495;28;20029;-67
2021/05/04 06:20:33;;;;;;;7.60;6.78;;;;;;;11.85;45.12;99482.53;5060653;28;20107;-67
2021/05/04 06:22:58;;;;;;;6.63;6.05;;;;;;;11.78;45.67;99468.66;5072817;28;20102;-67
2021/05/04 06:25:24;;;;;;;8.57;6.93;;;;;;;11.49;46.28;99471.34;5072536;28;20024;-67
2021/05/04 06:27:50;;;;;;;8.23;6.68;;;;;;;11.99;45.44;99479.41;5071355;28;20029;-67
2021/05/04 06:30:15;;;;;;;10.35;7.05;;;;;;;11.88;45.86;99471.84;5071479;28;20038;-67
2021/05/04 06:32:42;;;;;;;9.13;7.05;;;;;;;11.53;47.67;99465.06;5071398;28;20028;-67
2021/05/04 06:35:08;;;;;;;6.90;6.28;;;;;;;12.21;44.73;99444.34;5060405;28;20107;-67
2021/05/04 06:37:33;;;;;;;7.35;6.65;;;;;;;12.01;45.51;99435.31;5072234;28;20024;-67
2021/05/04 06:39:59;;;;;;;13.82;11.13;;;;;;;12.30;44.31;99446.66;5054629;28;20033;-67
2021/05/04 06:42:24;;;;;;;31.75;25.70;;;;;;;12.22;44.32;99459.28;5054648;28;20028;-67
2021/05/04 06:44:49;;;;;;;17.20;15.32;;;;;;;12.43;44.38;99453.22;5072390;28;20364;-67
2021/05/04 06:47:15;;;;;;;8.55;7.75;;;;;;;12.29;44.33;99450.22;5054135;28;20101;-67
2021/05/04 06:49:41;;;;;;;6.90;5.82;;;;;;;12.47;45.15;99437.25;5068991;28;20028;-68
2021/05/04 06:52:06;;;;;;;6.00;5.40;;;;;;;12.40;44.93;99426.03;5072263;28;20051;-68
2021/05/04 06:54:32;;;;;;;5.78;5.22;;;;;;;12.27;45.04;99426.47;5054269;28;20121;-67
2021/05/04 06:56:58;;;;;;;5.50;5.00;;;;;;;12.33;44.72;99422.75;5070709;28;20506;-68
2021/05/04 06:59:23;;;;;;;6.55;5.72;;;;;;;12.58;44.79;99424.50;5072235;28;20098;-67
2021/05/04 07:01:48;;;;;;;4.63;4.22;;;;;;;12.51;43.97;99412.41;5070421;28;20029;-67
2021/05/04 07:04:14;;;;;;;4.75;4.35;;;;;;;12.97;43.46;99409.78;5072019;28;20027;-67
2021/05/04 07:06:40;;;;;;;4.60;4.15;;;;;;;13.23;43.15;99410.53;5054112;28;20533;-67
2021/05/04 07:09:05;;;;;;;5.13;4.30;;;;;;;13.33;42.40;99405.72;5071968;28;20029;-68
2021/05/04 07:11:32;;;;;;;5.65;5.05;;;;;;;13.44;42.93;99387.59;5072176;28;20070;-68
2021/05/04 07:13:57;;;;;;;8.45;5.47;;;;;;;12.85;43.10;99384.69;5037734;28;20428;-68
2021/05/04 07:16:23;;;;;;;5.38;4.53;;;;;;;13.04;42.49;99378.66;5072707;28;20051;-69
2021/05/04 07:18:48;;;;;;;5.60;4.00;;;;;;;13.41;42.42;99376.28;5071814;28;20024;-69
2021/05/04 07:21:13;;;;;;;6.93;4.35;;;;;;;14.05;41.03;99376.25;5071866;28;20036;-69
2021/05/04 07:23:41;;;;;;;4.55;4.13;;;;;;;13.28;41.67;99365.34;5070726;28;20025;-69
2021/05/04 07:26:06;;;;;;;3.60;3.30;;;;;;;13.39;41.70;99352.50;5071624;28;20388;-69
2021/05/04 07:28:31;;;;;;;3.65;3.30;;;;;;;13.77;40.87;99372.16;5071815;28;20031;-69
2021/05/04 07:30:57;;;;;;;3.63;3.33;;;;;;;13.69;38.97;99372.47;5069966;28;20012;-68
2021/05/04 07:33:22;;;;;;;5.45;2.72;;;;;;;14.12;38.46;99356.50;5071763;28;20074;-69
2021/05/04 07:35:48;;;;;;;3.90;3.08;;;;;;;14.16;38.94;99360.72;5070351;28;20065;-68
2021/05/04 07:38:15;;;;;;;2.90;2.67;;;;;;;14.40;38.27;99360.53;5066254;28;20357;-68
2021/05/04 07:40:41;;;;;;;3.60;2.67;;;;;;;14.70;38.10;99370.63;5053728;28;20028;-68
2021/05/04 07:43:07;;;;;;;4.32;2.90;;;;;;;14.60;38.41;99372.00;5053888;28;20527;-68
2021/05/04 07:45:32;;;;;;;3.20;2.90;;;;;;;14.72;37.60;99354.66;5071349;28;20067;-68
2021/05/04 07:47:59;;;;;;;3.20;2.90;;;;;;;14.63;37.52;99382.47;5071303;28;20028;-68
2021/05/04 07:50:25;;;;;;;3.20;2.90;;;;;;;14.43;38.40;99367.47;5071483;28;20013;-68
2021/05/04 07:52:50;;;;;;;5.20;3.38;;;;;;;14.53;38.08;99366.13;5071730;28;20028;-68
2021/05/04 07:55:16;;;;;;;2.83;2.55;;;;;;;14.34;38.75;99359.00;5053430;28;20388;-68
2021/05/04 07:57:41;;;;;;;3.10;2.80;;;;;;;14.81;38.68;99353.38;5071390;28;20039;-68
2021/05/04 08:00:07;;;;;;;4.32;2.97;;;;;;;14.99;37.88;99341.88;5070206;28;20055;-69
2021/05/04 08:02:32;;;;;;;17.58;3.80;;;;;;;14.43;39.09;99343.59;5071396;28;20111;-68
2021/05/04 08:04:58;;;;;;;3.60;2.80;;;;;;;14.65;38.94;99354.09;5071118;28;20094;-68
2021/05/04 08:07:23;;;;;;;4.68;3.10;;;;;;;13.96;39.58;99346.56;5070277;28;20020;-68
2021/05/04 08:09:48;;;;;;;2.92;1.90;;;;;;;14.47;39.51;99346.03;5071559;28;20067;-68
2021/05/04 08:12:14;;;;;;;3.50;3.20;;;;;;;15.09;38.09;99336.97;5071381;28;20055;-68
2021/05/04 08:14:39;;;;;;;3.83;2.50;;;;;;;15.41;38.23;99338.97;5070292;28;20472;-69
2021/05/04 08:17:10;;;;;;;5.22;2.65;;;;;;;14.68;39.47;99353.94;5069763;28;20368;-69
2021/05/04 08:19:35;;;;;;;;;;;;;;;15.09;39.47;99346.72;5070031;28;20023;-69
2021/05/04 08:22:01;;;;;;;12.17;3.30;;;;;;;14.97;39.26;99346.38;5071271;28;19912;-68
2021/05/04 08:24:26;;;;;;;4.00;2.72;;;;;;;14.70;39.93;99360.03;5071238;28;20267;-68
2021/05/04 08:26:51;;;;;;;8.93;3.40;;;;;;;14.67;39.62;99357.50;5069923;28;20059;-68
2021/05/04 08:29:17;;;;;;;7.78;3.65;;;;;;;14.64;39.98;99365.59;5074569;28;20388;-68
2021/05/04 08:31:42;;;;;;;4.50;3.10;;;;;;;15.22;39.35;99357.59;5074876;28;20034;-68
2021/05/04 08:34:08;;;;;;;3.25;2.80;;;;;;;15.34;39.06;99356.16;5074990;28;20020;-68
2021/05/04 08:36:33;;;;;;;5.70;3.30;;;;;;;15.49;38.96;99365.13;5074333;28;20051;-68
2021/05/04 08:38:59;;;;;;;2.78;2.58;;;;;;;15.40;39.31;99355.81;5074875;28;20021;-68
2021/05/04 08:41:25;;;;;;;2.92;2.58;;;;;;;15.29;39.30;99355.50;5073597;28;20035;-68
2021/05/04 08:43:50;;;;;;;2.90;2.60;;;;;;;15.59;39.08;99360.19;5074715;28;20029;-68
2021/05/04 08:46:17;;;;;;;4.65;2.65;;;;;;;15.68;38.96;99365.06;5073110;28;20024;-68
2021/05/04 08:48:44;;;;;;;2.80;2.58;;;;;;;16.69;38.20;99358.88;5073421;28;20021;-68
2021/05/04 08:51:11;;;;;;;2.88;2.22;;;;;;;17.30;36.43;99356.34;5074551;28;20025;-68
2021/05/04 08:53:37;;;;;;;2.83;2.33;;;;;;;18.62;34.81;99352.03;5074454;28;20074;-68
2021/05/04 08:56:02;;;;;;;4.63;2.70;;;;;;;18.26;35.15;99358.72;5073003;28;20183;-68
2021/05/04 08:58:28;;;;;;;2.83;2.20;;;;;;;18.50;34.15;99371.50;5074353;28;20125;-68
2021/05/04 09:00:55;;;;;;;3.25;2.10;;;;;;;17.09;36.31;99366.44;5074677;28;20039;-68
2021/05/04 09:03:28;;;;;;;19.05;4.47;;;;;;;16.37;37.04;99372.16;5074432;28;20487;-69
2021/05/04 09:09:13;;;;;;;2.38;2.08;;;;;;;17.03;36.81;99364.09;5073099;28;20033;-68
2021/05/04 09:11:36;;;;;;;3.05;2.47;;;;;;;17.46;36.17;99375.91;5070958;28;20048;-68
2021/05/04 09:19:42;;;;;;;5.03;2.60;;;;;;;18.12;34.39;99352.44;5073055;28;20545;-68
2021/05/04 09:22:09;;;;;;;;;;;;;;;17.57;36.08;99358.34;5073435;28;20029;-68
2021/05/04 09:24:42;;;;;;;4.50;2.65;;;;;;;16.61;37.89;99363.78;5074043;28;19908;-68
2021/05/04 09:27:16;;;;;;;2.63;2.42;;;;;;;16.29;38.20;99360.13;5073637;28;20074;-68
2021/05/04 09:29:45;;;;;;;4.32;2.78;;;;;;;16.22;38.17;99358.75;5072655;28;20020;-68
2021/05/04 09:32:16;;;;;;;3.00;2.70;;;;;;;16.20;37.97;99360.63;5074104;28;20021;-68
2021/05/04 09:34:47;;;;;;;2.72;2.53;;;;;;;16.05;38.79;99346.34;5070424;28;20077;-68
2021/05/04 09:37:41;;;;;;;2.37;2.17;;;;;;;17.55;36.69;99327.41;5066454;28;20067;-68
2021/05/04 09:40:19;;;;;;;2.53;2.33;;;;;;;20.52;34.58;99319.72;5068857;28;20060;-68
2021/05/04 09:42:45;;;;;;;4.93;2.70;;;;;;;21.90;30.27;99321.16;5073703;28;20116;-68
2021/05/04 09:45:23;;;;;;;5.38;2.20;;;;;;;21.56;29.69;99308.50;5073516;28;20025;-69
2021/05/04 09:48:11;;;;;;;2.88;2.03;;;;;;;22.28;29.97;99324.47;5072143;28;20030;-69
2021/05/04 09:51:01;;;;;;;2.80;2.17;;;;;;;25.70;26.16;99309.50;5073085;28;20029;-69
2021/05/04 09:53:45;;;;;;;2.70;2.28;;;;;;;26.05;25.65;99296.34;5073248;28;20074;-69
2021/05/04 09:56:12;;;;;;;3.22;2.00;;;;;;;23.25;27.65;99300.53;5072054;28;20525;-69
2021/05/04 09:58:39;;;;;;;2.72;2.17;;;;;;;21.73;29.66;99283.06;5072458;28;20032;-69
2021/05/04 10:01:07;;;;;;;3.20;2.10;;;;;;;24.56;27.11;99276.69;5073007;28;20029;-69
2021/05/04 10:03:34;;;;;;;1.88;1.77;;;;;;;22.98;29.10;99288.44;5072032;28;20054;-69
2021/05/04 10:06:01;;;;;;;4.15;1.70;;;;;;;22.09;29.46;99282.97;5073023;28;20043;-69
2021/05/04 10:08:28;;;;;;;42.03;5.00;;;;;;;20.89;30.60;99290.25;5072022;28;20031;-69
2021/05/04 10:10:54;;;;;;;3.30;2.00;;;;;;;19.23;33.41;99287.53;5054984;28;20043;-68
2021/05/04 10:13:20;;;;;;;1.90;1.80;;;;;;;18.76;34.34;99284.38;5056077;28;20021;-69
2021/05/04 10:15:46;;;;;;;2.30;1.95;;;;;;;18.63;34.43;99281.63;5054290;28;20142;-68
2021/05/04 10:18:13;;;;;;;2.05;1.88;;;;;;;18.96;34.28;99279.50;5051610;28;20388;-69
2021/05/04 10:20:40;;;;;;;2.08;1.98;;;;;;;18.22;35.13;99283.34;5036162;28;20028;-69
2021/05/04 10:23:06;;;;;;;5.78;1.80;;;;;;;18.17;35.74;99291.63;5037957;28;20057;-68
2021/05/04 10:25:31;;;;;;;2.13;1.92;;;;;;;17.78;36.07;99280.66;5069614;28;20483;-69
2021/05/04 10:27:57;;;;;;;4.22;2.25;;;;;;;18.06;36.39;99273.63;5054828;28;20027;-68
2021/05/04 10:30:23;;;;;;;1.80;1.50;;;;;;;18.34;36.08;99271.88;5038113;28;20035;-68
2021/05/04 10:32:52;;;;;;;2.08;1.98;;;;;;;17.99;35.66;99272.28;5072442;28;20154;-68
2021/05/04 10:35:43;;;;;;;3.50;2.03;;;;;;;17.23;37.60;99285.72;5054214;28;20024;-68
2021/05/04 10:38:17;;;;;;;2.53;1.80;;;;;;;16.89;37.86;99277.88;5071842;28;20027;-67
2021/05/04 10:40:45;;;;;;;2.15;1.95;;;;;;;16.70;38.42;99293.19;5071072;28;20029;-68
2021/05/04 10:43:22;;;;;;;4.68;2.80;;;;;;;17.15;37.72;99277.31;5069961;28;20335;-68
2021/05/04 10:45:58;;;;;;;2.10;1.90;;;;;;;16.18;39.67;99274.75;5071293;28;20487;-68
2021/05/04 10:48:36;;;;;;;4.35;1.83;;;;;;;15.91;40.33;99278.75;5071147;28;20029;-68
2021/05/04 10:51:02;;;;;;;2.17;1.88;;;;;;;16.10;40.00;99267.16;5071890;28;20025;-68
2021/05/04 10:53:53;;;;;;;2.72;2.22;;;;;;;16.15;40.17;99267.75;5071133;28;20541;-68
2021/05/04 10:56:49;;;;;;;2.55;1.70;;;;;;;16.27;39.82;99260.91;5071947;28;20116;-68
2021/05/04 10:59:36;;;;;;;5.22;2.17;;;;;;;16.35;39.60;99256.97;5070452;28;20031;-68
2021/05/04 11:02:08;;;;;;;5.70;2.38;;;;;;;16.38;39.95;99262.13;5072013;28;20484;-67
2021/05/04 11:04:46;;;;;;;2.67;1.75;;;;;;;16.26;40.16;99266.31;5072121;28;20064;-67
2021/05/04 11:07:12;;;;;;;2.95;1.58;;;;;;;16.28;40.78;99264.44;5053793;28;20479;-67
2021/05/04 11:09:40;;;;;;;2.20;1.88;;;;;;;16.40;40.04;99261.09;5054227;28;20480;-67
2021/05/04 11:12:07;;;;;;;3.28;2.00;;;;;;;16.20;40.43;99275.50;5053976;28;20021;-67
2021/05/04 11:14:35;;;;;;;3.78;2.00;;;;;;;16.12;40.45;99267.09;5063610;28;20060;-68
2021/05/04 11:17:08;;;;;;;2.50;1.63;;;;;;;16.14;40.70;99270.53;5070389;28;20396;-68
2021/05/04 11:19:36;;;;;;;1.80;1.70;;;;;;;16.18;41.15;99277.41;5070913;28;20472;-68
2021/05/04 11:22:02;;;;;;;47.30;5.38;;;;;;;15.34;41.83;99281.78;5070730;28;20086;-67
2021/05/04 11:24:30;;;;;;;145.07;16.77;;;;;;;15.55;41.55;99270.94;5069067;28;20479;-66
2021/05/04 11:26:56;;;;;;;3.95;2.45;;;;;;;16.33;40.27;99277.47;5068750;28;20032;-66
2021/05/04 11:29:24;;;;;;;3.22;1.90;;;;;;;15.78;41.37;99273.25;5051084;28;20029;-66
2021/05/04 11:31:52;;;;;;;2.05;1.77;;;;;;;16.02;41.66;99272.06;5050171;28;20086;-66
2021/05/04 11:34:42;;;;;;;2.50;1.90;;;;;;;16.13;41.37;99259.03;5068682;28;20069;-65
2021/05/04 11:37:20;;;;;;;3.83;2.20;;;;;;;16.30;40.76;99265.19;5049696;28;20024;-66
2021/05/04 11:39:55;;;;;;;3.92;1.77;;;;;;;16.49;40.28;99269.50;5068571;28;20051;-66